Hancock, Maine
Current Conditions -  °F | °C
As of 6:35 PM on Wednesday 22 Oct 2014 (Local Time) from KBHB Reporting Station
Overcast Overcast  
Wind Chill: 39°   Ceiling: 1200
Heat Index: 46°   Visibility: 10mi
Dew Point: 46°   Wind: 20mph
Humidity: 100%   Direction: 30°NNE
Pressure: 30.12"   Gusts: 26mph
Location:  44.53°N, 68.25°W
Report Text: KBHB 222235Z AUTO 03017G23KT 10SM OVC012 08/08 A3012 RMK AO1
Loading
Personal Weather Stations






























Interactive Weather Map
Tropical Storm Tracking
New forecast layout! Learn more

10-Day Weather Forecast

Advertisements
Track Severe Weather on mobile